El Moro, Colorado
Current Conditions -  °F | °C
As of 5:54 AM on Saturday 25 Oct 2014 (Local Time) from KTAD Reporting Station
Clear Clear  
Wind Chill: 50°   Ceiling: Unl
Heat Index: 50°   Visibility: 10mi
Dew Point: 27°   Wind: 16mph
Humidity: 41%   Direction: 250°WSW
Pressure: 30.24"   Gusts: NA
Location:  37.1661°N, 104.486°W
Report Text: KTAD 251154Z AUTO 25014KT 10SM CLR 10/M03 A3024 RMK AO2 SLP176 T01001028 10128 20083 56003
Loading
Personal Weather Stations






























Interactive Weather Map New forecast layout! Learn more

10-Day Weather Forecast

Advertisements
Track Severe Weather on mobile